Time;durP1;ratioP1;P1;durP2;ratioP2;P2;SDS_P1;SDS_P2;PMS_P1;PMS_P2;Temp;Humidity;BMP_temperature;BMP_pressure;BME280_temperature;BME280_humidity;BME280_pressure;Samples;Min_cycle;Max_cycle;Signal;HPM_P1;HPM_P2
2021/06/15 00:02:07;;;;;;;9.82;7.57;;;21.90;99.90;;;;;;5087702;28;20043;-69
2021/06/15 00:05:13;;;;;;;10.32;6.55;;;21.80;99.90;;;;;;5084016;28;20039;-69
2021/06/15 00:08:17;;;;;;;13.07;7.68;;;21.70;99.90;;;;;;5077402;28;20047;-69
2021/06/15 00:11:22;;;;;;;12.25;7.90;;;21.70;99.90;;;;;;5071872;28;20055;-69
2021/06/15 00:14:26;;;;;;;14.35;7.82;;;21.60;99.90;;;;;;5069677;28;20044;-69
2021/06/15 00:17:30;;;;;;;11.07;7.07;;;21.60;99.90;;;;;;5087068;28;20027;-69
2021/06/15 00:20:34;;;;;;;11.88;7.25;;;21.50;99.90;;;;;;5081184;28;20392;-69
2021/06/15 00:23:38;;;;;;;13.00;7.72;;;21.50;99.90;;;;;;5087622;28;20072;-69
2021/06/15 00:26:42;;;;;;;11.25;7.88;;;21.50;99.90;;;;;;5070878;28;20039;-69
2021/06/15 00:29:46;;;;;;;13.95;8.55;;;21.40;99.90;;;;;;5077312;28;20040;-69
2021/06/15 00:32:51;;;;;;;13.48;7.75;;;21.40;99.90;;;;;;5072635;28;20043;-69
2021/06/15 00:35:55;;;;;;;20.52;8.80;;;21.30;99.90;;;;;;5090426;28;20509;-69
2021/06/15 00:39:00;;;;;;;10.27;8.50;;;21.30;99.90;;;;;;5083464;28;20044;-69
2021/06/15 00:42:06;;;;;;;9.98;7.80;;;21.40;99.90;;;;;;5093268;28;20046;-69
2021/06/15 00:45:13;;;;;;;10.15;8.07;;;21.40;99.90;;;;;;5087057;28;20510;-68
2021/06/15 00:48:31;;;;;;;12.27;8.38;;;21.40;99.90;;;;;;5086545;28;20039;-69
2021/06/15 00:51:36;;;;;;;9.52;7.47;;;21.50;99.90;;;;;;5082211;28;20070;-69
2021/06/15 00:54:43;;;;;;;9.32;6.93;;;21.60;99.90;;;;;;5091529;28;20036;-69
2021/06/15 00:57:48;;;;;;;9.27;7.53;;;21.60;99.90;;;;;;5091249;28;20051;-69
2021/06/15 01:00:53;;;;;;;10.60;6.93;;;21.70;99.90;;;;;;5086227;28;20047;-69
2021/06/15 01:03:58;;;;;;;13.05;7.45;;;21.70;99.90;;;;;;5087555;28;20054;-68
2021/06/15 01:07:41;;;;;;;14.88;7.10;;;21.70;99.90;;;;;;5075460;28;20075;-69
2021/06/15 01:10:54;;;;;;;9.27;6.82;;;21.60;99.90;;;;;;5086640;28;20054;-69
2021/06/15 01:14:34;;;;;;;10.68;7.47;;;21.60;99.90;;;;;;5089574;28;20043;-69
2021/06/15 01:17:53;;;;;;;10.75;7.65;;;21.60;99.90;;;;;;5051545;28;20051;-69
2021/06/15 01:21:09;;;;;;;12.48;7.45;;;21.50;99.90;;;;;;5089540;28;20035;-69
2021/06/15 01:24:31;;;;;;;10.13;7.72;;;21.50;99.90;;;;;;5082024;28;20039;-69
2021/06/15 01:27:38;;;;;;;10.00;8.35;;;21.40;99.90;;;;;;5088180;28;20379;-69
2021/06/15 01:31:00;;;;;;;11.75;7.38;;;21.40;99.90;;;;;;5086480;28;20043;-68
2021/06/15 01:34:07;;;;;;;13.40;7.88;;;21.40;99.90;;;;;;5088635;28;20043;-69
2021/06/15 01:37:19;;;;;;;10.07;6.97;;;21.30;99.90;;;;;;5077519;28;20044;-69
2021/06/15 01:40:35;;;;;;;14.30;7.53;;;21.20;99.90;;;;;;5070567;28;20047;-69
2021/06/15 01:43:51;;;;;;;12.75;7.85;;;21.20;99.90;;;;;;5081095;28;20398;-69
2021/06/15 01:47:10;;;;;;;12.23;7.50;;;21.10;99.90;;;;;;5082288;28;20425;-69
2021/06/15 01:50:20;;;;;;;11.40;7.90;;;21.10;99.90;;;;;;5082168;28;20043;-68
2021/06/15 01:53:25;;;;;;;11.52;7.90;;;21.00;99.90;;;;;;5103026;28;20047;-68
2021/06/15 01:56:33;;;;;;;9.07;7.50;;;21.10;99.90;;;;;;5070927;28;20060;-69
2021/06/15 01:59:46;;;;;;;10.20;8.05;;;21.00;99.90;;;;;;5080187;28;20047;-69
2021/06/15 02:02:53;;;;;;;13.52;8.52;;;21.00;99.90;;;;;;5092433;28;20051;-69
2021/06/15 02:06:06;;;;;;;11.23;8.07;;;21.00;99.90;;;;;;5092100;28;20051;-69
2021/06/15 02:09:13;;;;;;;11.85;7.13;;;20.90;99.90;;;;;;5075657;28;20054;-69
2021/06/15 02:12:31;;;;;;;13.98;7.28;;;20.90;99.90;;;;;;5071287;28;20051;-68
2021/06/15 02:15:56;;;;;;;10.00;7.05;;;20.90;99.90;;;;;;5071494;28;20393;-68
2021/06/15 02:19:26;;;;;;;12.65;7.80;;;20.80;99.90;;;;;;5071304;28;20044;-69
2021/06/15 02:22:33;;;;;;;12.80;8.02;;;20.80;99.90;;;;;;5083200;28;20043;-69
2021/06/15 02:25:42;;;;;;;9.35;6.95;;;20.80;99.90;;;;;;5086782;28;20059;-69
2021/06/15 02:28:47;;;;;;;12.15;7.63;;;20.80;99.90;;;;;;5071822;28;20053;-69
2021/06/15 02:31:56;;;;;;;9.20;8.00;;;20.80;99.90;;;;;;5072840;28;20059;-69
2021/06/15 02:35:08;;;;;;;8.30;7.43;;;20.80;99.90;;;;;;5075241;28;20130;-69
2021/06/15 02:38:25;;;;;;;;;;;20.70;99.90;;;;;;5091881;28;20058;-69
2021/06/15 02:41:32;;;;;;;10.70;7.93;;;20.70;99.90;;;;;;5071117;28;19916;-69
2021/06/15 02:44:42;;;;;;;7.57;6.45;;;20.60;99.90;;;;;;5070747;28;20067;-69
2021/06/15 02:47:52;;;;;;;19.73;7.22;;;20.60;99.90;;;;;;5086188;28;20039;-68
2021/06/15 02:51:00;;;;;;;8.43;6.88;;;20.60;99.90;;;;;;5090283;28;20051;-69
2021/06/15 02:54:22;;;;;;;9.20;7.72;;;20.50;99.90;;;;;;5068523;28;20039;-68
2021/06/15 02:57:27;;;;;;;10.65;7.13;;;20.40;99.90;;;;;;5070068;28;20039;-69
2021/06/15 03:00:32;;;;;;;10.73;7.32;;;20.30;99.90;;;;;;5081457;28;20187;-69
2021/06/15 03:03:37;;;;;;;9.98;7.05;;;20.30;99.90;;;;;;5086091;28;20391;-69
2021/06/15 03:06:42;;;;;;;15.88;7.57;;;20.20;99.90;;;;;;5085881;28;20051;-69
2021/06/15 03:09:47;;;;;;;11.82;7.28;;;20.20;99.90;;;;;;5069668;28;20050;-69
2021/06/15 03:13:12;;;;;;;10.23;7.40;;;20.10;99.90;;;;;;5088705;28;20051;-69
2021/06/15 03:16:24;;;;;;;10.55;7.68;;;20.00;99.90;;;;;;5069223;28;20047;-69
2021/06/15 03:19:39;;;;;;;11.18;7.60;;;20.00;99.90;;;;;;5080162;28;20051;-69
2021/06/15 03:22:53;;;;;;;8.52;6.68;;;19.90;99.90;;;;;;5079668;28;20304;-69
2021/06/15 03:26:05;;;;;;;7.63;6.32;;;19.80;99.90;;;;;;5082120;28;20055;-69
2021/06/15 03:29:14;;;;;;;10.60;6.53;;;19.80;99.90;;;;;;5085226;28;20047;-68
2021/06/15 03:32:24;;;;;;;10.52;6.43;;;19.70;99.90;;;;;;5088567;28;20051;-69
2021/06/15 03:35:31;;;;;;;9.43;6.53;;;19.60;99.90;;;;;;5087896;28;20058;-69
2021/06/15 03:38:36;;;;;;;9.95;6.38;;;19.50;99.90;;;;;;5080422;28;20040;-69
2021/06/15 03:41:42;;;;;;;9.57;6.70;;;19.50;99.90;;;;;;5069039;28;20052;-69
2021/06/15 03:44:52;;;;;;;8.70;6.65;;;19.50;99.90;;;;;;5069634;28;20047;-69
2021/06/15 03:47:57;;;;;;;10.60;6.95;;;19.30;99.90;;;;;;5081154;28;20054;-69
2021/06/15 03:51:01;;;;;;;8.68;6.75;;;19.40;99.90;;;;;;5088752;28;20458;-69
2021/06/15 03:54:09;;;;;;;10.30;7.32;;;19.40;99.90;;;;;;5090130;28;20047;-69
2021/06/15 03:57:15;;;;;;;42.15;8.18;;;19.40;99.90;;;;;;5083980;28;20411;-69
2021/06/15 04:00:24;;;;;;;9.95;6.95;;;19.30;99.90;;;;;;5085788;28;20551;-69
2021/06/15 04:03:30;;;;;;;16.42;7.25;;;19.30;99.90;;;;;;5073981;28;20051;-69
2021/06/15 04:06:37;;;;;;;8.00;6.40;;;19.40;99.90;;;;;;5070105;28;20051;-69
2021/06/15 04:09:44;;;;;;;8.05;6.50;;;19.50;99.90;;;;;;5077181;28;20395;-69
2021/06/15 04:12:50;;;;;;;9.05;6.55;;;19.50;99.90;;;;;;5087037;28;20047;-69
2021/06/15 04:15:57;;;;;;;10.25;6.88;;;19.50;99.90;;;;;;5084235;28;20039;-69
2021/06/15 04:19:06;;;;;;;14.52;7.13;;;19.50;99.90;;;;;;5086253;28;20059;-69
2021/06/15 04:22:14;;;;;;;11.93;7.68;;;19.60;99.90;;;;;;5088566;28;20059;-69
2021/06/15 04:25:21;;;;;;;10.65;6.88;;;19.70;99.90;;;;;;5089570;28;20110;-69
2021/06/15 04:28:26;;;;;;;10.85;6.90;;;19.90;99.90;;;;;;5075409;28;20051;-69
2021/06/15 04:31:32;;;;;;;9.68;7.20;;;20.70;99.90;;;;;;5071409;28;20044;-69
2021/06/15 04:34:45;;;;;;;9.85;6.10;;;21.70;99.90;;;;;;5080551;28;20051;-69
2021/06/15 04:37:52;;;;;;;9.67;6.63;;;23.10;99.90;;;;;;5069559;28;20040;-69
2021/06/15 04:41:11;;;;;;;11.63;6.15;;;24.50;99.90;;;;;;5079498;28;20047;-69
2021/06/15 04:44:21;;;;;;;8.18;6.10;;;25.50;99.90;;;;;;5068965;28;20055;-69
2021/06/15 04:47:29;;;;;;;12.82;5.82;;;25.20;99.90;;;;;;5068593;28;20056;-69
2021/06/15 04:50:35;;;;;;;10.68;6.05;;;25.80;99.90;;;;;;5072041;28;20383;-69
2021/06/15 04:53:43;;;;;;;8.90;5.93;;;26.80;99.80;;;;;;5076958;28;20051;-69
2021/06/15 04:56:49;;;;;;;13.20;7.28;;;27.60;99.40;;;;;;5088912;28;20051;-69
2021/06/15 04:59:59;;;;;;;9.05;6.20;;;28.30;98.30;;;;;;5083987;28;20398;-70
2021/06/15 05:03:05;;;;;;;12.13;10.15;;;28.60;97.50;;;;;;5082236;28;20047;-69
2021/06/15 05:06:10;;;;;;;28.05;20.02;;;28.70;96.80;;;;;;5088738;28;20051;-69
2021/06/15 05:09:16;;;;;;;15.50;11.07;;;29.20;96.00;;;;;;5087034;28;20035;-69
2021/06/15 05:12:22;;;;;;;15.73;10.15;;;28.00;95.90;;;;;;5083324;28;20375;-69
2021/06/15 05:15:28;;;;;;;15.73;10.95;;;28.20;96.80;;;;;;5089015;28;20482;-69
2021/06/15 05:18:34;;;;;;;14.40;10.52;;;27.40;97.10;;;;;;5072825;28;20193;-69
2021/06/15 05:22:01;;;;;;;10.25;7.45;;;28.60;96.60;;;;;;5073983;28;20047;-69
2021/06/15 05:25:09;;;;;;;7.57;5.95;;;28.20;96.50;;;;;;5085909;28;20051;-69
2021/06/15 05:28:13;;;;;;;9.80;5.30;;;29.00;95.90;;;;;;5087611;28;20051;-69
2021/06/15 05:31:17;;;;;;;9.70;6.60;;;28.20;95.20;;;;;;5085901;28;20055;-69
2021/06/15 05:34:21;;;;;;;10.80;7.00;;;26.70;96.10;;;;;;5088758;28;20040;-70
2021/06/15 05:37:26;;;;;;;14.18;6.18;;;25.90;96.80;;;;;;5089585;28;20781;-69
2021/06/15 05:40:30;;;;;;;7.25;5.10;;;25.00;97.60;;;;;;5087248;28;20717;-69
2021/06/15 05:43:34;;;;;;;9.20;5.47;;;25.00;97.30;;;;;;5084687;28;20047;-69
2021/06/15 05:46:38;;;;;;;7.88;5.13;;;26.20;97.00;;;;;;5084674;28;20051;-69
2021/06/15 05:49:42;;;;;;;7.65;4.32;;;28.20;95.30;;;;;;5084837;28;20670;-69
2021/06/15 05:52:46;;;;;;;8.30;4.32;;;28.80;93.80;;;;;;5086806;28;20540;-70
2021/06/15 05:55:51;;;;;;;12.07;4.43;;;28.00;93.40;;;;;;5088456;28;20052;-70
2021/06/15 05:58:55;;;;;;;5.72;4.25;;;28.00;93.80;;;;;;5090553;28;20043;-69
2021/06/15 06:02:00;;;;;;;5.78;4.28;;;28.40;92.90;;;;;;5070164;28;20052;-70
2021/06/15 06:08:16;;;;;;;7.07;4.30;;;29.10;91.70;;;;;;5088388;28;20387;-70
2021/06/15 06:11:21;;;;;;;7.78;3.85;;;28.40;92.20;;;;;;5087801;28;20043;-69
2021/06/15 06:14:26;;;;;;;9.60;3.20;;;27.60;91.90;;;;;;5086750;28;20050;-69
2021/06/15 06:17:31;;;;;;;5.13;3.72;;;29.00;91.40;;;;;;5085166;28;20031;-69
2021/06/15 06:20:37;;;;;;;4.93;3.38;;;28.00;90.60;;;;;;5088244;28;20047;-70
2021/06/15 06:23:41;;;;;;;4.03;3.38;;;28.40;91.10;;;;;;5086553;28;20063;-70
2021/06/15 06:26:52;;;;;;;4.95;3.40;;;28.60;91.10;;;;;;5091019;28;20402;-69
2021/06/15 06:29:56;;;;;;;6.20;3.65;;;29.50;90.20;;;;;;5085957;28;20075;-70
2021/06/15 06:33:00;;;;;;;5.82;3.33;;;30.20;90.00;;;;;;5086101;28;20039;-70
2021/06/15 06:36:05;;;;;;;4.75;3.92;;;30.20;88.80;;;;;;5089500;28;20047;-69
2021/06/15 06:39:10;;;;;;;5.15;3.42;;;28.70;90.20;;;;;;5087491;28;20047;-70
2021/06/15 06:42:14;;;;;;;5.25;3.35;;;29.90;90.60;;;;;;5086731;28;20177;-71
2021/06/15 06:45:19;;;;;;;5.40;3.30;;;31.40;89.10;;;;;;5087797;28;20047;-70
2021/06/15 06:48:23;;;;;;;5.13;3.00;;;32.70;87.70;;;;;;5080384;28;20047;-71
2021/06/15 06:51:28;;;;;;;5.15;2.90;;;33.60;84.30;;;;;;5081068;28;20039;-72
2021/06/15 06:54:32;;;;;;;4.60;2.58;;;34.10;83.50;;;;;;5090268;28;20047;-71
2021/06/15 06:57:36;;;;;;;6.00;2.83;;;34.50;80.80;;;;;;5086492;28;20058;-71
2021/06/15 07:00:40;;;;;;;3.85;2.78;;;34.90;80.30;;;;;;5081400;28;20046;-71
2021/06/15 07:03:44;;;;;;;5.00;2.85;;;34.80;79.70;;;;;;5079650;28;20068;-71
2021/06/15 07:06:48;;;;;;;7.38;3.30;;;34.50;79.50;;;;;;5083498;28;20047;-71
2021/06/15 07:09:53;;;;;;;4.20;3.15;;;34.70;79.10;;;;;;5088852;28;20084;-71
2021/06/15 07:12:58;;;;;;;6.68;3.00;;;35.40;77.60;;;;;;5089911;28;20051;-70
2021/06/15 07:16:02;;;;;;;7.80;2.92;;;35.70;76.70;;;;;;5088272;28;20146;-70
2021/06/15 07:19:06;;;;;;;6.43;2.65;;;35.60;75.60;;;;;;5087976;28;20482;-70
2021/06/15 07:22:11;;;;;;;8.15;3.92;;;35.60;76.00;;;;;;5086494;28;20050;-70
2021/06/15 07:25:15;;;;;;;7.10;4.35;;;36.40;74.80;;;;;;5081924;28;20039;-70
2021/06/15 07:28:19;;;;;;;6.22;4.35;;;36.30;74.50;;;;;;5085518;28;20501;-70
2021/06/15 07:31:23;;;;;;;9.68;4.05;;;36.20;74.00;;;;;;5088907;28;20379;-70
2021/06/15 07:34:27;;;;;;;8.07;3.80;;;36.60;73.20;;;;;;5086706;28;20047;-71
2021/06/15 07:37:31;;;;;;;11.18;4.25;;;37.10;72.50;;;;;;5083457;28;20490;-70
2021/06/15 07:40:36;;;;;;;9.70;3.95;;;37.50;72.10;;;;;;5084345;28;20047;-71
2021/06/15 07:43:40;;;;;;;6.60;3.85;;;37.20;71.10;;;;;;5085145;28;20599;-70
2021/06/15 07:46:44;;;;;;;5.95;3.85;;;37.10;72.10;;;;;;5090129;28;20063;-70
2021/06/15 07:49:48;;;;;;;5.40;4.20;;;37.50;72.20;;;;;;5079970;28;20048;-70
2021/06/15 07:52:52;;;;;;;10.35;3.83;;;38.00;70.80;;;;;;5085822;28;20051;-70
2021/06/15 07:55:56;;;;;;;6.72;4.28;;;37.20;70.20;;;;;;5088702;28;20039;-69
2021/06/15 07:59:00;;;;;;;6.20;4.28;;;36.80;69.90;;;;;;5083324;28;20047;-70
2021/06/15 08:02:04;;;;;;;7.72;4.00;;;35.50;72.30;;;;;;5080178;28;20039;-71
2021/06/15 08:05:08;;;;;;;8.07;3.50;;;36.90;72.40;;;;;;5085810;28;20379;-70
2021/06/15 08:08:13;;;;;;;5.65;3.42;;;37.20;70.90;;;;;;5082347;28;20485;-70
2021/06/15 08:11:17;;;;;;;5.40;3.13;;;38.10;70.80;;;;;;5089065;28;20047;-71
2021/06/15 08:14:21;;;;;;;7.80;3.88;;;39.20;69.10;;;;;;5081571;28;20074;-71
2021/06/15 08:17:25;;;;;;;8.68;3.65;;;39.70;68.20;;;;;;5078537;28;20482;-69
2021/06/15 08:20:30;;;;;;;7.13;4.10;;;34.10;69.20;;;;;;5087550;28;20043;-70
2021/06/15 08:23:34;;;;;;;6.38;3.47;;;35.30;72.40;;;;;;5089237;28;20047;-70
2021/06/15 08:26:38;;;;;;;6.88;3.72;;;36.00;70.60;;;;;;5088236;28;20050;-71
2021/06/15 08:29:42;;;;;;;6.85;3.80;;;37.30;69.20;;;;;;5079793;28;20054;-71
2021/06/15 08:32:47;;;;;;;5.80;3.83;;;38.80;67.90;;;;;;5078663;28;20046;-70
2021/06/15 08:35:52;;;;;;;5.90;4.13;;;36.40;67.80;;;;;;5075899;28;20051;-70
2021/06/15 08:39:02;;;;;;;8.43;3.85;;;38.20;67.90;;;;;;5087819;28;20035;-70
2021/06/15 08:42:06;;;;;;;9.18;3.90;;;37.40;67.70;;;;;;5086048;28;20039;-71
2021/06/15 08:45:14;;;;;;;8.88;3.47;;;38.90;67.70;;;;;;5087293;28;20043;-70
2021/06/15 08:48:19;;;;;;;4.82;3.38;;;40.40;66.00;;;;;;5081803;28;20050;-70
2021/06/15 08:51:23;;;;;;;9.70;3.45;;;41.20;65.60;;;;;;5087976;28;20406;-70
2021/06/15 08:54:29;;;;;;;3.67;2.90;;;40.90;66.00;;;;;;5090161;28;20051;-70
2021/06/15 08:57:37;;;;;;;3.72;3.03;;;38.90;66.40;;;;;;5086088;28;20046;-68
2021/06/15 09:00:42;;;;;;;5.63;3.20;;;37.20;69.70;;;;;;5086597;28;20039;-68
2021/06/15 09:03:51;;;;;;;5.28;3.00;;;34.10;70.70;;;;;;5090326;28;20047;-69
2021/06/15 09:06:56;;;;;;;5.47;2.88;;;36.70;69.40;;;;;;5091778;28;20047;-68
2021/06/15 09:10:01;;;;;;;4.28;2.70;;;36.30;68.20;;;;;;5085551;28;20043;-69
2021/06/15 09:13:06;;;;;;;8.27;2.80;;;38.10;67.80;;;;;;5088984;28;20051;-68
2021/06/15 09:16:20;;;;;;;7.78;2.78;;;39.70;65.70;;;;;;5090973;28;20035;-70
2021/06/15 09:19:25;;;;;;;6.65;2.30;;;39.00;67.30;;;;;;5089058;28;20031;-69
2021/06/15 09:22:35;;;;;;;6.68;2.70;;;37.10;68.20;;;;;;5090298;28;20085;-68
2021/06/15 09:25:39;;;;;;;3.35;2.10;;;37.70;64.50;;;;;;5090623;28;20055;-70
2021/06/15 09:28:50;;;;;;;6.90;2.10;;;39.20;63.30;;;;;;5080418;28;20047;-69
2021/06/15 09:31:55;;;;;;;10.20;2.35;;;40.80;60.90;;;;;;5087392;28;20035;-70
2021/06/15 09:35:06;;;;;;;3.53;1.60;;;40.90;60.20;;;;;;5089986;28;20489;-70
2021/06/15 09:38:10;;;;;;;3.38;1.63;;;42.90;58.40;;;;;;5081804;28;20043;-69
2021/06/15 09:41:40;;;;;;;4.47;2.25;;;44.20;56.80;;;;;;5078627;28;20035;-71
2021/06/15 09:44:44;;;;;;;8.45;2.20;;;43.90;55.60;;;;;;5077469;28;20044;-68
2021/06/15 09:47:49;;;;;;;2.75;1.55;;;41.60;55.90;;;;;;5091733;28;20047;-69
2021/06/15 09:51:03;;;;;;;5.38;1.95;;;41.40;57.20;;;;;;5089424;28;20391;-69
2021/06/15 09:54:07;;;;;;;3.30;2.20;;;41.10;58.00;;;;;;5085487;28;20059;-67
2021/06/15 09:57:16;;;;;;;5.97;2.50;;;36.80;59.10;;;;;;5091713;28;20043;-68
2021/06/15 10:00:22;;;;;;;5.53;1.97;;;38.50;60.60;;;;;;5089967;28;20505;-69
2021/06/15 10:03:28;;;;;;;5.05;2.15;;;39.60;60.00;;;;;;5079420;28;20289;-69
2021/06/15 10:06:34;;;;;;;2.58;1.58;;;41.50;56.80;;;;;;5092014;28;20035;-70
2021/06/15 10:09:39;;;;;;;6.35;1.77;;;43.30;55.30;;;;;;5090858;28;20042;-66
2021/06/15 10:12:45;;;;;;;2.97;1.38;;;41.00;56.10;;;;;;5085724;28;20050;-69
2021/06/15 10:15:50;;;;;;;2.95;1.63;;;39.00;56.90;;;;;;5090051;28;20044;-69
2021/06/15 10:18:54;;;;;;;4.63;2.17;;;36.30;57.50;;;;;;5082907;28;20047;-69
2021/06/15 10:21:59;;;;;;;2.97;1.50;;;35.20;59.40;;;;;;5087535;28;20039;-69
2021/06/15 10:25:04;;;;;;;9.48;2.42;;;37.80;57.30;;;;;;5087523;28;20517;-68
2021/06/15 10:28:13;;;;;;;5.85;2.10;;;39.20;58.00;;;;;;5070930;28;20051;-68
2021/06/15 10:31:29;;;;;;;4.70;1.50;;;38.90;58.30;;;;;;5077391;28;20050;-68
2021/06/15 10:34:59;;;;;;;3.28;1.52;;;40.50;58.80;;;;;;5070864;28;20043;-69
2021/06/15 10:38:05;;;;;;;;;;;41.70;57.00;;;;;;5088987;28;20063;-69
2021/06/15 10:41:23;;;;;;;3.30;1.83;;;41.30;56.10;;;;;;5089558;28;19915;-68
2021/06/15 10:44:27;;;;;;;6.28;1.95;;;36.40;56.60;;;;;;5075440;28;20043;-68
2021/06/15 10:47:31;;;;;;;2.30;1.83;;;36.90;57.10;;;;;;5071441;28;20514;-68
2021/06/15 10:50:47;;;;;;;3.13;1.45;;;39.60;57.90;;;;;;5070597;28;20044;-69
2021/06/15 10:54:01;;;;;;;4.70;1.63;;;40.20;56.50;;;;;;5086289;28;20387;-69
2021/06/15 10:57:28;;;;;;;3.03;1.60;;;39.10;56.30;;;;;;5082212;28;20048;-67
2021/06/15 11:00:47;;;;;;;5.70;1.80;;;36.00;57.40;;;;;;5070139;28;20047;-69
2021/06/15 11:04:00;;;;;;;7.80;2.08;;;35.20;57.30;;;;;;5079570;28;20047;-69
2021/06/15 11:07:35;;;;;;;3.75;1.67;;;33.10;60.00;;;;;;5085728;28;20039;-68
2021/06/15 11:10:45;;;;;;;3.72;1.90;;;33.70;59.90;;;;;;5085203;28;20043;-68
2021/06/15 11:13:53;;;;;;;5.13;1.92;;;32.60;61.50;;;;;;5090033;28;20709;-69
2021/06/15 11:17:00;;;;;;;3.70;1.95;;;34.50;59.30;;;;;;5085794;28;20035;-69
2021/06/15 11:20:09;;;;;;;2.92;1.77;;;36.40;57.40;;;;;;5075168;28;20051;-68
2021/06/15 11:23:22;;;;;;;3.88;1.80;;;36.80;57.70;;;;;;5074801;28;20083;-68
2021/06/15 11:26:35;;;;;;;4.88;1.92;;;37.30;56.90;;;;;;5075571;28;20043;-69
2021/06/15 11:29:42;;;;;;;3.70;1.98;;;35.50;58.30;;;;;;5071733;28;20052;-69
2021/06/15 11:33:02;;;;;;;2.33;1.52;;;37.80;56.90;;;;;;5073948;28;20072;-69
2021/06/15 11:36:56;;;;;;;3.85;1.65;;;38.80;55.50;;;;;;5073515;28;20502;-69
2021/06/15 11:40:23;;;;;;;3.40;1.70;;;37.00;57.40;;;;;;5072591;28;21107;-67
2021/06/15 11:43:27;;;;;;;2.95;1.80;;;34.80;56.30;;;;;;5072865;28;20415;-69
2021/06/15 11:46:31;;;;;;;2.75;1.67;;;35.40;56.90;;;;;;5063994;28;20696;-69
2021/06/15 11:49:36;;;;;;;9.25;2.53;;;36.00;56.40;;;;;;5069415;28;20118;-70
2021/06/15 11:53:09;;;;;;;4.00;1.75;;;36.60;55.90;;;;;;5069556;28;20059;-68
2021/06/15 11:56:15;;;;;;;;;;;37.40;56.00;;;;;;5070550;28;20035;-68
2021/06/15 11:59:19;;;;;;;5.72;1.70;;;36.30;56.30;;;;;;5069858;28;19912;-68
2021/06/15 12:02:25;;;;;;;8.82;1.90;;;35.30;58.60;;;;;;5074144;28;20052;-69
2021/06/15 12:05:29;;;;;;;4.13;1.63;;;36.40;55.90;;;;;;5067912;28;20593;-69
2021/06/15 12:08:38;;;;;;;2.78;1.98;;;36.90;57.50;;;;;;5078878;28;20042;-69
2021/06/15 12:11:42;;;;;;;2.55;1.52;;;35.70;56.20;;;;;;5077925;28;20391;-69
2021/06/15 12:14:46;;;;;;;4.30;1.83;;;35.90;56.80;;;;;;5086930;28;20130;-68
2021/06/15 12:17:52;;;;;;;3.47;1.95;;;32.90;59.50;;;;;;5081133;28;20395;-69
2021/06/15 12:21:03;;;;;;;3.17;2.08;;;34.10;58.90;;;;;;5088396;28;20051;-69
2021/06/15 12:24:08;;;;;;;4.85;1.77;;;35.70;57.70;;;;;;5082150;28;20070;-69
2021/06/15 12:27:20;;;;;;;2.83;1.90;;;35.70;58.50;;;;;;5086506;28;20055;-68
2021/06/15 12:30:26;;;;;;;2.92;1.73;;;35.80;56.70;;;;;;5074009;28;20050;-69
2021/06/15 12:33:30;;;;;;;3.17;2.13;;;35.20;58.50;;;;;;5089122;28;20047;-69
2021/06/15 12:36:40;;;;;;;6.25;1.90;;;33.20;60.40;;;;;;5084365;28;20047;-68
2021/06/15 12:39:44;;;;;;;3.33;1.85;;;32.90;60.00;;;;;;5086228;28;20043;-69
2021/06/15 12:42:50;;;;;;;3.65;2.10;;;33.30;58.80;;;;;;5086022;28;20043;-68
2021/06/15 12:46:06;;;;;;;5.22;2.05;;;34.60;60.40;;;;;;5080673;28;20059;-69
2021/06/15 12:49:18;;;;;;;2.60;1.60;;;35.10;58.40;;;;;;5072146;28;20039;-69
2021/06/15 12:52:40;;;;;;;5.15;1.90;;;35.90;58.80;;;;;;5085461;28;20043;-69
2021/06/15 12:55:44;;;;;;;4.18;2.10;;;35.30;57.40;;;;;;5086204;28;20047;-68
2021/06/15 12:58:50;;;;;;;3.63;2.00;;;34.00;57.40;;;;;;5085039;28;20043;-68
2021/06/15 13:01:55;;;;;;;3.55;1.77;;;34.00;58.80;;;;;;5083915;28;20043;-69
2021/06/15 13:05:03;;;;;;;12.68;3.65;;;33.30;60.30;;;;;;5085174;28;20062;-69
2021/06/15 13:08:07;;;;;;;3.17;1.77;;;32.80;60.10;;;;;;5085031;28;20051;-68
2021/06/15 13:11:18;;;;;;;3.72;2.22;;;32.90;61.10;;;;;;5081654;28;20039;-69
2021/06/15 13:14:30;;;;;;;3.85;2.00;;;33.70;59.70;;;;;;5086884;28;20047;-68
2021/06/15 13:17:35;;;;;;;4.05;2.00;;;33.20;60.60;;;;;;5084723;28;20055;-68
2021/06/15 13:20:39;;;;;;;3.00;2.25;;;32.20;62.00;;;;;;5078488;28;20071;-68
2021/06/15 13:23:44;;;;;;;3.30;1.90;;;32.00;62.30;;;;;;5079817;28;20043;-68
2021/06/15 13:26:51;;;;;;;6.13;2.72;;;31.70;60.80;;;;;;5086971;28;20387;-69
2021/06/15 13:30:01;;;;;;;4.65;2.10;;;32.00;61.30;;;;;;5081944;28;20047;-68
2021/06/15 13:33:18;;;;;;;8.30;3.15;;;31.40;61.50;;;;;;5086766;28;20043;-67
2021/06/15 13:36:23;;;;;;;3.28;1.80;;;31.40;63.00;;;;;;5088270;28;20035;-68
2021/06/15 13:39:28;;;;;;;4.93;1.80;;;32.20;61.00;;;;;;5083951;28;20055;-68
2021/06/15 13:42:33;;;;;;;6.68;2.03;;;31.80;61.50;;;;;;5087985;28;20585;-69
2021/06/15 13:45:44;;;;;;;2.97;2.17;;;31.70;62.90;;;;;;5091068;28;20047;-68
2021/06/15 13:48:54;;;;;;;3.03;1.88;;;32.10;61.20;;;;;;5088536;28;20048;-70
2021/06/15 13:51:58;;;;;;;3.53;1.90;;;32.40;61.10;;;;;;5087673;28;20042;-68
2021/06/15 13:55:10;;;;;;;4.55;1.90;;;32.30;62.70;;;;;;5088823;28;20047;-69
2021/06/15 13:58:16;;;;;;;4.75;2.65;;;32.60;62.70;;;;;;5089664;28;20047;-70
2021/06/15 14:01:20;;;;;;;7.20;2.38;;;33.30;60.80;;;;;;5082667;28;20035;-69
2021/06/15 14:04:24;;;;;;;12.73;2.70;;;33.70;63.30;;;;;;5089319;28;20059;-68
2021/06/15 14:07:29;;;;;;;4.68;2.15;;;32.90;60.60;;;;;;5091939;28;20039;-69
2021/06/15 14:10:36;;;;;;;3.63;1.92;;;33.00;60.40;;;;;;5089259;28;20502;-69
2021/06/15 14:13:42;;;;;;;7.15;2.33;;;33.30;61.00;;;;;;5087191;28;20048;-69
2021/06/15 14:16:46;;;;;;;4.53;1.88;;;33.10;61.50;;;;;;5081054;28;20059;-68
2021/06/15 14:19:51;;;;;;;4.68;2.03;;;32.90;60.40;;;;;;5090571;28;20383;-69
2021/06/15 14:22:55;;;;;;;5.20;2.10;;;32.50;60.90;;;;;;5085526;28;20485;-69
2021/06/15 14:26:00;;;;;;;4.72;1.80;;;32.30;61.30;;;;;;5090505;28;20035;-69
2021/06/15 14:29:06;;;;;;;7.97;2.10;;;32.80;63.80;;;;;;5089111;28;20054;-69
2021/06/15 14:32:10;;;;;;;5.70;2.22;;;33.30;65.00;;;;;;5088128;28;20485;-69
2021/06/15 14:35:15;;;;;;;3.45;2.08;;;33.60;63.30;;;;;;5091181;28;20382;-69
2021/06/15 14:38:21;;;;;;;11.57;2.20;;;33.80;64.00;;;;;;5075421;28;20040;-68
2021/06/15 14:41:26;;;;;;;4.95;1.85;;;33.80;64.20;;;;;;5069719;28;20035;-69
2021/06/15 14:44:31;;;;;;;4.13;2.13;;;32.60;65.00;;;;;;5077187;28;20039;-68
2021/06/15 14:47:35;;;;;;;3.80;2.53;;;32.90;65.30;;;;;;5074030;28;20055;-69
2021/06/15 14:50:40;;;;;;;6.05;2.83;;;33.20;62.90;;;;;;5075399;28;20317;-68
2021/06/15 14:53:45;;;;;;;3.65;1.90;;;33.40;61.50;;;;;;5071677;28;20387;-69
2021/06/15 14:56:50;;;;;;;2.45;1.80;;;32.60;64.30;;;;;;5073399;28;20502;-69
2021/06/15 14:59:56;;;;;;;5.00;2.03;;;32.60;65.80;;;;;;5078416;28;20043;-69
2021/06/15 15:03:01;;;;;;;5.97;2.20;;;33.00;66.00;;;;;;5087721;28;20031;-69
2021/06/15 15:06:05;;;;;;;4.10;2.15;;;33.20;66.40;;;;;;5086595;28;20047;-69
2021/06/15 15:09:09;;;;;;;6.38;2.67;;;32.60;66.40;;;;;;5082347;28;20043;-68
2021/06/15 15:12:13;;;;;;;5.30;2.40;;;32.80;64.50;;;;;;5085389;28;20039;-69
2021/06/15 15:15:18;;;;;;;5.22;2.40;;;32.90;64.60;;;;;;5083588;28;20047;-69
2021/06/15 15:18:22;;;;;;;5.00;2.10;;;32.90;62.10;;;;;;5087224;28;20043;-69
2021/06/15 15:21:29;;;;;;;4.78;2.05;;;32.70;65.60;;;;;;5085479;28;20043;-68
2021/06/15 15:24:33;;;;;;;4.85;2.40;;;32.80;65.80;;;;;;5085922;28;20047;-68
2021/06/15 15:27:38;;;;;;;3.78;2.30;;;32.70;65.10;;;;;;5086971;28;20035;-69
2021/06/15 15:30:44;;;;;;;5.45;2.20;;;32.70;67.30;;;;;;5081360;28;20510;-69
2021/06/15 15:33:49;;;;;;;4.50;2.03;;;32.60;64.90;;;;;;5089467;28;20659;-69
2021/06/15 15:36:54;;;;;;;4.80;2.22;;;32.40;65.20;;;;;;5089589;28;20035;-69
2021/06/15 15:39:58;;;;;;;4.25;2.25;;;32.40;66.60;;;;;;5081734;28;20047;-69
2021/06/15 15:43:03;;;;;;;3.33;2.50;;;32.40;65.60;;;;;;5087108;28;20046;-69
2021/06/15 15:46:08;;;;;;;4.40;2.50;;;32.50;65.20;;;;;;5085745;28;20047;-68
2021/06/15 15:49:14;;;;;;;4.45;2.47;;;32.50;64.60;;;;;;5088242;28;20042;-69
2021/06/15 15:52:22;;;;;;;2.83;2.23;;;32.60;66.50;;;;;;5084222;28;20047;-70
2021/06/15 15:55:27;;;;;;;4.75;2.05;;;32.60;64.60;;;;;;5084276;28;20252;-69
2021/06/15 15:58:32;;;;;;;5.30;2.33;;;32.60;64.70;;;;;;5085589;28;20043;-70
2021/06/15 16:01:37;;;;;;;7.70;2.33;;;32.50;65.90;;;;;;5078055;28;20055;-69
2021/06/15 16:04:43;;;;;;;4.93;2.35;;;32.40;66.20;;;;;;5087188;28;20106;-69
2021/06/15 16:07:48;;;;;;;5.95;2.35;;;32.30;65.50;;;;;;5086337;28;20114;-68
2021/06/15 16:10:53;;;;;;;4.10;2.83;;;31.60;64.60;;;;;;5086626;28;20059;-69
2021/06/15 16:13:57;;;;;;;6.82;2.65;;;31.70;66.70;;;;;;5078506;28;20043;-69
2021/06/15 16:17:02;;;;;;;7.45;2.40;;;31.70;65.90;;;;;;5087955;28;20043;-69
2021/06/15 16:20:08;;;;;;;4.03;2.17;;;31.80;66.40;;;;;;5082770;28;20039;-69